createdAt,value
2022-10-29T00:16:14.392Z,99.90
2022-10-29T00:18:41.655Z,99.90
2022-10-29T00:21:15.442Z,99.90
2022-10-29T00:23:43.041Z,99.90
2022-10-29T00:26:11.077Z,99.90
2022-10-29T00:28:38.497Z,99.90
2022-10-29T00:31:18.046Z,99.90
2022-10-29T00:33:46.189Z,99.90
2022-10-29T00:36:16.815Z,99.90
2022-10-29T00:38:44.488Z,99.90
2022-10-29T00:41:16.143Z,99.90
2022-10-29T00:43:52.249Z,99.90
2022-10-29T00:46:35.198Z,99.90
2022-10-29T00:49:03.803Z,99.90
2022-10-29T00:51:32.942Z,99.90
2022-10-29T00:54:08.096Z,99.90
2022-10-29T00:59:26.263Z,99.90
2022-10-29T01:01:54.258Z,99.90
2022-10-29T01:04:23.434Z,99.90
2022-10-29T01:06:52.354Z,99.90
2022-10-29T01:09:19.495Z,99.90
2022-10-29T01:12:22.675Z,99.90
2022-10-29T01:15:20.986Z,99.90
2022-10-29T01:18:20.941Z,99.90
2022-10-29T01:20:54.035Z,99.90
2022-10-29T01:24:07.742Z,99.90
2022-10-29T01:27:39.347Z,99.90
2022-10-29T01:30:15.200Z,99.90
2022-10-29T01:33:06.492Z,99.90
2022-10-29T01:36:05.114Z,99.90
2022-10-29T01:38:57.894Z,99.90
2022-10-29T01:41:56.632Z,99.90
2022-10-29T01:45:02.694Z,99.90
2022-10-29T01:47:40.709Z,99.90
2022-10-29T01:50:14.290Z,99.90
2022-10-29T01:52:43.610Z,99.90
2022-10-29T02:00:18.684Z,99.90
2022-10-29T02:02:58.467Z,99.90
2022-10-29T02:05:45.833Z,99.90
2022-10-29T02:08:20.345Z,99.90
2022-10-29T02:11:15.767Z,99.90
2022-10-29T02:13:53.712Z,99.90
2022-10-29T02:16:25.009Z,99.90
2022-10-29T05:08:43.265Z,99.90
2022-10-29T05:13:38.575Z,99.90
2022-10-29T05:16:06.779Z,99.90
2022-10-29T05:18:33.903Z,99.90
2022-10-29T05:21:04.202Z,99.90
2022-10-29T05:23:32.012Z,99.90
2022-10-29T05:25:59.143Z,99.90
2022-10-29T05:28:29.429Z,99.90
2022-10-29T05:31:00.307Z,99.90
2022-10-29T05:33:27.497Z,99.90
2022-10-29T05:35:54.767Z,99.90
2022-10-29T05:38:21.900Z,99.90
2022-10-29T05:40:49.069Z,99.90
2022-10-29T05:43:17.807Z,99.90
2022-10-29T05:45:45.289Z,99.90
2022-10-29T05:48:14.334Z,99.90
2022-10-29T05:50:41.722Z,99.90
2022-10-29T05:53:14.286Z,99.90
2022-10-29T05:55:42.580Z,99.90
2022-10-29T05:58:14.509Z,99.90
2022-10-29T06:00:44.503Z,99.90
2022-10-29T06:03:18.044Z,99.90
2022-10-29T06:05:48.391Z,99.90
2022-10-29T06:08:16.159Z,99.90
2022-10-29T06:10:43.455Z,99.90
2022-10-29T06:13:22.410Z,99.90
2022-10-29T06:15:50.848Z,99.90
2022-10-29T06:18:18.120Z,99.90
2022-10-29T06:20:45.372Z,99.90
2022-10-29T06:23:12.596Z,99.90
2022-10-29T06:25:39.869Z,99.90
2022-10-29T06:28:11.071Z,99.90
2022-10-29T06:30:38.551Z,99.90
2022-10-29T06:33:05.765Z,99.90
2022-10-29T06:38:04.079Z,99.90
2022-10-29T06:40:33.572Z,99.90
2022-10-29T06:43:03.946Z,99.90
2022-10-29T06:45:34.121Z,99.90
2022-10-29T06:48:02.190Z,99.90
2022-10-29T06:50:29.561Z,99.90
2022-10-29T06:53:07.592Z,99.90
2022-10-29T06:55:35.543Z,99.90
2022-10-29T06:58:06.342Z,99.90
2022-10-29T07:00:35.098Z,99.90
2022-10-29T07:03:03.090Z,99.90
2022-10-29T07:05:31.017Z,99.90
2022-10-29T07:08:00.595Z,99.90
2022-10-29T07:10:31.321Z,99.90
2022-10-29T07:12:59.593Z,99.90
2022-10-29T07:15:30.834Z,99.90
2022-10-29T07:18:05.793Z,99.90
2022-10-29T07:20:36.860Z,99.90
2022-10-29T07:23:04.643Z,99.90
2022-10-29T07:25:39.520Z,99.90
2022-10-29T07:28:19.566Z,99.90
2022-10-29T07:30:47.469Z,99.90
2022-10-29T07:33:15.229Z,99.90
2022-10-29T07:35:43.789Z,99.90
2022-10-29T07:38:12.918Z,99.90
2022-10-29T07:40:47.657Z,99.90
2022-10-29T07:43:15.486Z,99.90
2022-10-29T07:45:48.347Z,99.90
2022-10-29T07:48:16.028Z,99.90
2022-10-29T07:50:43.283Z,99.90
2022-10-29T07:53:10.995Z,99.90
2022-10-29T07:55:38.756Z,99.90
2022-10-29T07:58:11.229Z,99.90
2022-10-29T08:00:41.265Z,99.90
2022-10-29T08:03:10.258Z,99.90
2022-10-29T08:05:37.461Z,99.90
2022-10-29T08:08:05.601Z,99.90
2022-10-29T08:10:35.866Z,99.90
2022-10-29T08:13:05.963Z,99.90
2022-10-29T08:15:38.594Z,99.90
2022-10-29T08:18:17.568Z,99.90
2022-10-29T08:20:45.376Z,99.90
2022-10-29T08:23:13.750Z,99.90
2022-10-29T08:25:42.233Z,99.90
2022-10-29T08:28:13.224Z,99.90
2022-10-29T08:30:42.276Z,99.90
2022-10-29T08:33:10.528Z,99.90
2022-10-29T08:35:37.688Z,99.90
2022-10-29T08:38:04.804Z,99.90
2022-10-29T08:40:46.468Z,99.90
2022-10-29T08:43:58.656Z,99.90
2022-10-29T08:46:46.314Z,99.90
2022-10-29T08:49:35.983Z,99.90
2022-10-29T08:52:14.753Z,99.90
2022-10-29T08:54:48.251Z,99.90
2022-10-29T08:57:19.242Z,99.90
2022-10-29T09:00:02.601Z,99.90
2022-10-29T09:02:29.960Z,99.90
2022-10-29T09:04:58.400Z,99.90
2022-10-29T09:08:12.812Z,99.90
2022-10-29T09:11:07.751Z,99.90
2022-10-29T09:13:51.550Z,99.90
2022-10-29T09:16:41.645Z,99.90
2022-10-29T09:19:26.796Z,99.90
2022-10-29T09:22:17.536Z,99.90
2022-10-29T09:25:08.257Z,99.90
2022-10-29T09:28:13.481Z,99.90
2022-10-29T09:31:42.063Z,99.90
2022-10-29T09:34:34.421Z,99.90
2022-10-29T09:37:02.467Z,99.90
2022-10-29T09:39:38.879Z,99.90
2022-10-29T09:42:22.026Z,99.90
2022-10-29T09:45:03.134Z,99.90
2022-10-29T09:48:25.152Z,99.90
2022-10-29T09:51:19.550Z,99.90
2022-10-29T09:53:46.835Z,99.90
2022-10-29T09:56:14.076Z,99.90
2022-10-29T09:58:52.345Z,99.90
2022-10-29T10:01:19.659Z,99.90
2022-10-29T10:03:55.628Z,99.90
2022-10-29T10:06:22.807Z,99.90
2022-10-29T10:09:06.420Z,99.90
2022-10-29T10:11:42.224Z,99.90
2022-10-29T10:14:22.643Z,99.90
2022-10-29T10:17:00.117Z,99.90
2022-10-29T10:19:31.505Z,99.90
2022-10-29T10:22:02.169Z,99.90
2022-10-29T10:24:35.174Z,99.90
2022-10-29T10:27:30.325Z,99.90
2022-10-29T10:30:14.717Z,99.90
2022-10-29T10:32:42.157Z,99.90
2022-10-29T10:35:30.921Z,99.90
2022-10-29T10:37:58.618Z,99.90
2022-10-29T10:40:26.490Z,99.90
2022-10-29T10:42:55.786Z,99.90
2022-10-29T10:45:40.631Z,99.90
2022-10-29T10:48:16.205Z,99.90
2022-10-29T10:50:43.537Z,99.90
2022-10-29T10:53:22.383Z,99.90
2022-10-29T10:55:56.666Z,99.90
2022-10-29T10:58:45.424Z,99.90
2022-10-29T11:01:43.713Z,99.90
2022-10-29T11:04:34.535Z,99.90
2022-10-29T11:07:08.281Z,99.90
2022-10-29T11:09:46.670Z,99.90
2022-10-29T11:12:44.882Z,99.90
2022-10-29T11:15:41.086Z,99.90
2022-10-29T11:18:41.315Z,99.90
2022-10-29T11:21:21.317Z,99.90
2022-10-29T11:24:05.402Z,99.90
2022-10-29T11:26:41.615Z,99.90
2022-10-29T11:29:42.170Z,99.90
2022-10-29T11:32:15.205Z,99.90
2022-10-29T11:35:11.268Z,99.90
2022-10-29T11:37:53.784Z,99.90
2022-10-29T11:41:09.716Z,99.90
2022-10-29T11:43:37.010Z,99.90
2022-10-29T11:46:31.688Z,99.90
2022-10-29T11:49:24.515Z,99.90
2022-10-29T11:52:22.561Z,99.90
2022-10-29T11:54:59.730Z,99.90
2022-10-29T11:57:47.831Z,99.90
2022-10-29T12:00:23.742Z,99.80
2022-10-29T12:03:12.395Z,99.80
2022-10-29T12:06:15.058Z,99.80
2022-10-29T12:09:37.448Z,99.90
2022-10-29T12:12:40.509Z,99.40
2022-10-29T12:15:32.026Z,99.70
2022-10-29T12:18:25.994Z,98.80
2022-10-29T12:21:26.701Z,98.30
2022-10-29T12:23:53.939Z,98.80
2022-10-29T12:26:36.140Z,98.20
2022-10-29T12:29:12.643Z,97.90
2022-10-29T12:31:44.599Z,97.20
2022-10-29T12:34:47.875Z,96.90
2022-10-29T12:37:48.171Z,97.20
2022-10-29T12:40:40.618Z,97.70
2022-10-29T12:43:29.079Z,98.70
2022-10-29T12:46:31.565Z,99.60
2022-10-29T12:49:40.140Z,99.90
2022-10-29T12:52:50.087Z,99.90
2022-10-29T12:55:23.528Z,99.90
2022-10-29T12:57:51.109Z,99.90
2022-10-29T13:00:45.899Z,99.90
2022-10-29T13:03:58.568Z,99.90
2022-10-29T13:06:45.330Z,99.90
2022-10-29T13:09:29.720Z,99.90
2022-10-29T13:12:13.687Z,99.90
2022-10-29T13:14:54.315Z,99.90
2022-10-29T13:17:41.901Z,99.90
2022-10-29T13:20:20.885Z,99.90
2022-10-29T13:22:52.421Z,99.90
2022-10-29T13:25:37.932Z,99.90
2022-10-29T13:28:08.075Z,99.90
2022-10-29T13:30:39.495Z,99.90
2022-10-29T13:33:28.510Z,99.90
2022-10-29T13:36:25.752Z,99.90
2022-10-29T13:39:05.749Z,99.90
2022-10-29T13:41:46.406Z,99.90
2022-10-29T13:44:29.183Z,99.90
2022-10-29T13:47:04.530Z,99.90
2022-10-29T13:49:42.374Z,99.90
2022-10-29T13:52:09.747Z,99.90
2022-10-29T13:55:06.366Z,99.90
2022-10-29T13:57:46.874Z,99.90
2022-10-29T14:00:14.203Z,99.90
2022-10-29T14:02:47.033Z,99.90
2022-10-29T14:05:40.436Z,99.90
2022-10-29T14:08:13.721Z,99.90
2022-10-29T14:10:41.059Z,99.90
2022-10-29T14:13:14.023Z,99.90
2022-10-29T14:16:06.960Z,99.90
2022-10-29T14:18:37.774Z,99.90
2022-10-29T14:21:15.502Z,99.90
2022-10-29T14:24:02.011Z,99.90
2022-10-29T14:26:33.434Z,99.90
2022-10-29T14:29:23.805Z,99.90
2022-10-29T14:32:11.523Z,99.90
2022-10-29T14:34:39.476Z,99.90
2022-10-29T14:37:37.363Z,99.90
2022-10-29T14:40:28.229Z,99.90
2022-10-29T14:42:57.477Z,99.90
2022-10-29T14:45:31.059Z,99.90
2022-10-29T14:48:02.080Z,99.90
2022-10-29T14:50:31.404Z,99.90
2022-10-29T14:53:05.533Z,99.90
2022-10-29T14:55:40.465Z,99.90
2022-10-29T14:58:16.509Z,99.90
2022-10-29T15:01:07.262Z,99.90
2022-10-29T15:03:36.261Z,99.90
2022-10-29T15:06:19.549Z,99.90
2022-10-29T15:09:02.312Z,99.90
2022-10-29T15:14:36.290Z,99.90
2022-10-29T15:17:16.479Z,99.90
2022-10-29T15:19:46.789Z,99.90
2022-10-29T15:22:37.381Z,99.90
2022-10-29T15:25:15.599Z,99.90
2022-10-29T15:27:42.872Z,99.90
2022-10-29T15:30:28.306Z,99.90
2022-10-29T15:33:00.857Z,99.90
2022-10-29T15:35:28.752Z,99.90
2022-10-29T15:37:56.559Z,99.90
2022-10-29T15:40:25.812Z,99.90
2022-10-29T15:42:54.813Z,99.90
2022-10-29T15:45:26.515Z,99.90
2022-10-29T15:48:17.865Z,99.90
2022-10-29T15:50:46.129Z,99.90
2022-10-29T15:53:16.729Z,99.90
2022-10-29T15:55:44.593Z,99.90
2022-10-29T15:58:19.558Z,99.90
2022-10-29T16:00:46.845Z,99.90
2022-10-29T16:03:21.001Z,99.90
2022-10-29T16:05:59.225Z,99.90
2022-10-29T16:08:40.822Z,99.90
2022-10-29T16:11:16.788Z,99.90
2022-10-29T16:13:43.984Z,99.90
2022-10-29T16:16:15.132Z,99.90
2022-10-29T16:18:42.237Z,99.90
2022-10-29T16:21:14.319Z,99.90
2022-10-29T16:23:41.874Z,99.90
2022-10-29T16:26:21.309Z,99.90
2022-10-29T16:28:48.616Z,99.90
2022-10-29T16:31:28.863Z,99.90
2022-10-29T16:34:03.059Z,99.90
2022-10-29T16:36:30.420Z,99.90
2022-10-29T16:38:57.800Z,99.90
2022-10-29T16:41:25.019Z,99.90
2022-10-29T16:43:52.291Z,99.90
2022-10-29T16:48:46.941Z,99.90
2022-10-29T16:51:14.219Z,99.90
2022-10-29T16:53:41.321Z,99.90
2022-10-29T16:56:08.740Z,99.90
2022-10-29T16:58:35.995Z,99.90
2022-10-29T17:01:08.191Z,99.90
2022-10-29T17:03:35.977Z,99.90
2022-10-29T17:06:09.777Z,99.90
2022-10-29T17:08:38.183Z,99.90
2022-10-29T17:11:07.261Z,99.90
2022-10-29T17:13:34.990Z,99.90
2022-10-29T17:16:12.236Z,99.90
2022-10-29T17:18:39.457Z,99.90
2022-10-29T17:21:06.676Z,99.90
2022-10-29T17:23:34.272Z,99.90
2022-10-29T17:26:01.432Z,99.90
2022-10-29T17:28:28.922Z,99.90
2022-10-29T17:30:56.109Z,99.90
2022-10-29T17:33:23.336Z,99.90
2022-10-29T17:35:59.940Z,99.90
2022-10-29T17:38:27.525Z,99.90
2022-10-29T17:40:54.623Z,99.90
2022-10-29T17:43:22.166Z,99.90
2022-10-29T17:45:49.377Z,99.90
2022-10-29T17:48:18.749Z,99.90
2022-10-29T17:50:56.901Z,99.90
2022-10-29T17:53:26.607Z,99.90
2022-10-29T17:55:58.240Z,99.90
2022-10-29T17:58:26.298Z,99.90
2022-10-29T18:47:42.178Z,99.90
2022-10-29T18:50:09.563Z,99.90
2022-10-29T18:52:36.770Z,99.90
2022-10-29T18:55:04.285Z,99.90
2022-10-29T18:57:31.557Z,99.90
2022-10-29T18:59:58.674Z,99.90
2022-10-29T19:02:25.971Z,99.90
2022-10-29T19:04:53.197Z,99.90
2022-10-29T19:07:20.369Z,99.90
2022-10-29T19:09:48.208Z,99.90
2022-10-29T19:12:15.399Z,99.90
2022-10-29T19:14:42.524Z,99.90
2022-10-29T19:17:09.716Z,99.90
2022-10-29T19:19:36.966Z,99.90
2022-10-29T19:22:04.087Z,99.90
2022-10-29T19:34:22.458Z,99.90
2022-10-29T19:36:49.610Z,99.90
2022-10-29T19:39:16.875Z,99.90
2022-10-29T19:41:44.109Z,99.90
2022-10-29T19:44:11.413Z,99.90
2022-10-29T19:46:38.609Z,99.90
2022-10-29T19:49:05.991Z,99.90
2022-10-29T19:51:33.203Z,99.90
2022-10-29T19:54:00.608Z,99.90
2022-10-29T19:56:27.956Z,99.90
2022-10-29T19:58:55.152Z,99.90
2022-10-29T20:01:22.636Z,99.90
2022-10-29T20:03:50.088Z,99.90
2022-10-29T20:06:17.655Z,99.90
2022-10-29T20:11:12.754Z,99.90
2022-10-29T20:13:40.148Z,99.90
2022-10-29T20:16:18.000Z,99.90
2022-10-29T20:18:46.210Z,99.90
2022-10-29T20:21:14.328Z,99.90
2022-10-29T20:23:42.360Z,99.90
2022-10-29T20:26:09.737Z,99.90
2022-10-29T20:28:37.611Z,99.90
2022-10-29T20:33:53.958Z,99.90
2022-10-29T20:36:22.560Z,99.90
2022-10-29T20:38:51.848Z,99.90
2022-10-29T20:41:20.561Z,99.90
2022-10-29T20:43:53.980Z,99.90
2022-10-29T20:46:23.145Z,99.90
2022-10-29T20:48:50.860Z,99.90
2022-10-29T20:51:18.483Z,99.90
2022-10-29T20:53:45.628Z,99.90
2022-10-29T20:56:16.018Z,99.90
2022-10-29T20:58:44.433Z,99.90
2022-10-29T21:01:16.847Z,99.90
2022-10-29T21:03:45.350Z,99.90
2022-10-29T21:06:17.034Z,99.90
2022-10-29T21:08:47.178Z,99.90
2022-10-29T21:11:16.206Z,99.90
2022-10-29T21:13:43.867Z,99.90
2022-10-29T21:16:28.870Z,99.90
2022-10-29T21:18:59.799Z,99.90
2022-10-29T21:21:29.313Z,99.90
2022-10-29T21:23:59.643Z,99.90
2022-10-29T21:26:28.543Z,99.90
2022-10-29T21:28:55.917Z,99.90
2022-10-29T21:31:24.301Z,99.90
2022-10-29T21:33:54.208Z,99.90
2022-10-29T21:36:22.570Z,99.90
2022-10-29T21:38:50.265Z,99.90
2022-10-29T21:41:17.751Z,99.90
2022-10-29T21:43:45.142Z,99.90
2022-10-29T21:46:12.488Z,99.90
2022-10-29T21:48:39.659Z,99.90
2022-10-29T21:51:11.294Z,99.90
2022-10-29T21:53:38.605Z,99.90
2022-10-29T21:56:09.896Z,99.90
2022-10-29T21:58:37.078Z,99.90
2022-10-29T22:01:14.109Z,99.90
2022-10-29T22:03:44.631Z,99.90
2022-10-29T22:06:16.910Z,99.90
2022-10-29T22:08:46.193Z,99.90
2022-10-29T22:11:15.413Z,99.90
2022-10-29T22:13:42.789Z,99.90
2022-10-29T22:16:11.386Z,99.90
2022-10-29T22:18:39.999Z,99.90
2022-10-29T22:21:20.083Z,99.90
2022-10-29T22:23:53.907Z,99.90
2022-10-29T22:26:25.242Z,99.90
2022-10-29T22:28:52.733Z,99.90
2022-10-29T22:31:22.064Z,99.90
2022-10-29T22:33:49.519Z,99.90
2022-10-29T22:36:23.333Z,99.90
2022-10-29T22:38:59.972Z,99.90
2022-10-29T22:41:29.491Z,99.90
2022-10-29T22:43:58.144Z,99.90
2022-10-29T22:46:27.335Z,99.90
2022-10-29T22:48:55.148Z,99.90
2022-10-29T22:51:26.361Z,99.90
2022-10-29T22:53:54.526Z,99.90
2022-10-29T22:56:29.327Z,99.90
2022-10-29T22:58:57.284Z,99.90
2022-10-29T23:01:28.568Z,99.90
2022-10-29T23:03:57.621Z,99.90
2022-10-29T23:06:26.678Z,99.90
2022-10-29T23:08:57.436Z,99.90
2022-10-29T23:11:28.379Z,99.90
2022-10-29T23:14:00.095Z,99.90
2022-10-29T23:16:31.319Z,99.90
2022-10-29T23:19:02.903Z,99.90
2022-10-29T23:21:30.809Z,99.90
2022-10-29T23:23:58.319Z,99.90
2022-10-29T23:26:26.389Z,99.90
2022-10-29T23:28:53.764Z,99.90
2022-10-29T23:31:25.399Z,99.90
2022-10-29T23:33:56.094Z,99.90
2022-10-29T23:36:25.683Z,99.90
2022-10-29T23:39:01.278Z,99.90
2022-10-29T23:41:31.327Z,99.90
2022-10-29T23:43:59.147Z,99.90
2022-10-29T23:46:26.727Z,99.90
2022-10-29T23:48:53.971Z,99.90
2022-10-29T23:51:21.274Z,99.90
2022-10-29T23:53:50.499Z,99.90
2022-10-29T23:56:20.529Z,99.90
2022-10-29T23:58:47.806Z,99.90
